createdAt,value
2022-11-17T00:00:16.565Z,11.41
2022-11-17T00:02:16.609Z,11.44
2022-11-17T00:04:16.697Z,11.45
2022-11-17T00:07:31.851Z,11.5
2022-11-17T00:09:31.764Z,11.55
2022-11-17T00:11:31.749Z,11.46
2022-11-17T00:13:32.096Z,11.65
2022-11-17T00:15:31.824Z,11.59
2022-11-17T00:17:31.782Z,11.72
2022-11-17T00:19:31.769Z,11.64
2022-11-17T00:22:49.167Z,11.51
2022-11-17T00:24:49.171Z,11.71
2022-11-17T00:26:49.128Z,11.64
2022-11-17T00:28:49.206Z,11.69
2022-11-17T00:30:49.120Z,11.75
2022-11-17T00:32:49.135Z,11.7
2022-11-17T00:34:49.162Z,11.8
2022-11-17T00:37:21.722Z,11.72
2022-11-17T00:39:21.766Z,11.77
2022-11-17T00:41:21.756Z,11.67
2022-11-17T00:43:21.726Z,11.62
2022-11-17T00:45:21.706Z,11.76
2022-11-17T00:47:21.703Z,11.76
2022-11-17T00:49:21.739Z,11.76
2022-11-17T00:51:21.847Z,11.71
2022-11-17T00:53:29.770Z,11.67
2022-11-17T00:55:29.832Z,11.72
2022-11-17T00:57:29.762Z,11.6
2022-11-17T00:59:29.820Z,11.69
2022-11-17T01:01:29.826Z,11.75
2022-11-17T01:03:29.755Z,11.83
2022-11-17T01:05:32.941Z,11.82
2022-11-17T01:08:36.141Z,11.88
2022-11-17T01:10:36.053Z,11.79
2022-11-17T01:12:35.998Z,11.84
2022-11-17T01:14:36.060Z,11.85
2022-11-17T01:16:36.010Z,11.83
2022-11-17T01:18:36.044Z,11.91
2022-11-17T01:20:35.995Z,12.02
2022-11-17T01:22:57.221Z,11.93
2022-11-17T01:24:57.324Z,11.86
2022-11-17T01:26:57.227Z,11.73
2022-11-17T01:28:57.259Z,11.9
2022-11-17T01:30:57.253Z,11.81
2022-11-17T01:32:57.242Z,11.94
2022-11-17T01:34:57.216Z,11.97
2022-11-17T01:36:57.239Z,12.02
2022-11-17T01:38:28.748Z,12.07
2022-11-17T01:40:28.759Z,12.13
2022-11-17T01:42:28.704Z,11.95
2022-11-17T01:44:28.753Z,12.11
2022-11-17T01:46:28.720Z,12.13
2022-11-17T01:48:28.694Z,12.08
2022-11-17T01:50:28.741Z,12.14
2022-11-17T01:53:24.623Z,12
2022-11-17T01:55:24.631Z,12.11
2022-11-17T01:57:24.714Z,12.21
2022-11-17T01:59:24.622Z,12.24
2022-11-17T02:01:24.617Z,12.23
2022-11-17T02:03:24.625Z,12.05
2022-11-17T02:05:24.580Z,12.01
2022-11-17T02:09:20.409Z,12.17
2022-11-17T02:11:20.396Z,12.07
2022-11-17T02:13:20.550Z,12.14
2022-11-17T02:15:20.382Z,12.2
2022-11-17T02:17:20.373Z,12.22
2022-11-17T02:19:20.425Z,12.15
2022-11-17T02:21:20.376Z,12.07
2022-11-17T02:23:36.497Z,12.08
2022-11-17T02:25:36.215Z,12.11
2022-11-17T02:27:36.213Z,12.05
2022-11-17T02:29:36.343Z,11.96
2022-11-17T02:31:36.205Z,11.99
2022-11-17T02:33:36.476Z,12.04
2022-11-17T02:35:36.206Z,12.07
2022-11-17T02:37:36.195Z,11.95
2022-11-17T02:39:03.832Z,11.84
2022-11-17T02:41:03.819Z,12.04
2022-11-17T02:43:03.782Z,12.16
2022-11-17T02:45:03.803Z,12.09
2022-11-17T02:47:03.787Z,12.02
2022-11-17T02:49:03.817Z,11.99
2022-11-17T02:51:03.785Z,12.05
2022-11-17T02:54:18.195Z,11.98
2022-11-17T02:56:18.158Z,12.03
2022-11-17T02:58:18.136Z,12.03
2022-11-17T03:00:18.311Z,12.04
2022-11-17T03:02:18.148Z,11.97
2022-11-17T03:04:18.176Z,12.03
2022-11-17T03:06:18.163Z,12
2022-11-17T03:09:37.085Z,12.02
2022-11-17T03:11:37.080Z,11.92
2022-11-17T03:13:37.346Z,12.03
2022-11-17T03:15:37.136Z,11.96
2022-11-17T03:17:37.069Z,12.1
2022-11-17T03:19:37.078Z,12.05
2022-11-17T03:21:37.128Z,12.18
2022-11-17T03:24:25.398Z,11.97
2022-11-17T03:26:25.404Z,12.04
2022-11-17T03:28:25.728Z,12.02
2022-11-17T03:30:25.492Z,12.11
2022-11-17T03:32:25.547Z,12.01
2022-11-17T03:34:25.384Z,12.15
2022-11-17T03:36:25.384Z,12.09
2022-11-17T03:39:30.896Z,11.92
2022-11-17T03:41:30.886Z,11.85
2022-11-17T03:43:30.882Z,11.93
2022-11-17T03:45:30.898Z,11.94
2022-11-17T03:47:30.957Z,11.92
2022-11-17T03:49:30.866Z,12.09
2022-11-17T03:51:30.862Z,11.87
2022-11-17T03:53:30.898Z,11.9
2022-11-17T03:55:25.863Z,12.05
2022-11-17T03:57:25.811Z,12.1
2022-11-17T03:59:25.804Z,12.12
2022-11-17T04:01:25.882Z,12.04
2022-11-17T04:03:28.940Z,12.11
2022-11-17T04:05:25.881Z,11.98
2022-11-17T04:07:25.844Z,11.97
2022-11-17T04:10:22.992Z,12.08
2022-11-17T04:12:22.984Z,12.05
2022-11-17T04:14:23.083Z,11.95
2022-11-17T04:16:23.010Z,11.94
2022-11-17T04:18:23.019Z,12.03
2022-11-17T04:20:23.113Z,12.09
2022-11-17T04:22:23.009Z,12.12
2022-11-17T04:25:43.045Z,12.22
2022-11-17T04:27:43.068Z,12.2
2022-11-17T04:29:43.048Z,12.14
2022-11-17T04:31:43.052Z,12.05
2022-11-17T04:33:43.201Z,12.05
2022-11-17T04:35:43.066Z,11.96
2022-11-17T04:37:43.042Z,11.89
2022-11-17T04:40:58.571Z,12.02
2022-11-17T04:42:58.525Z,12
2022-11-17T04:44:58.534Z,12
2022-11-17T04:46:58.522Z,12.06
2022-11-17T04:48:58.522Z,11.93
2022-11-17T04:50:58.625Z,12.01
2022-11-17T04:52:58.526Z,11.93
2022-11-17T04:55:13.426Z,11.98
2022-11-17T04:57:13.378Z,12.05
2022-11-17T04:59:13.409Z,11.98
2022-11-17T05:01:13.416Z,11.98
2022-11-17T05:03:13.418Z,11.93
2022-11-17T05:05:13.404Z,12.03
2022-11-17T05:07:13.524Z,11.81
2022-11-17T05:09:13.446Z,11.96
2022-11-17T05:11:14.274Z,12.07
2022-11-17T05:13:14.221Z,12.09
2022-11-17T05:15:14.195Z,12.05
2022-11-17T05:17:14.200Z,11.97
2022-11-17T05:19:14.238Z,11.95
2022-11-17T05:21:14.186Z,12.01
2022-11-17T05:23:14.298Z,11.76
2022-11-17T05:26:13.117Z,11.73
2022-11-17T05:28:13.066Z,11.79
2022-11-17T05:30:13.072Z,11.72
2022-11-17T05:32:13.072Z,11.71
2022-11-17T05:34:13.109Z,11.72
2022-11-17T05:36:13.207Z,11.85
2022-11-17T05:38:13.274Z,11.71
2022-11-17T05:41:01.845Z,11.72
2022-11-17T05:43:01.786Z,11.66
2022-11-17T05:45:01.720Z,11.69
2022-11-17T05:47:01.779Z,11.64
2022-11-17T05:49:01.723Z,11.76
2022-11-17T05:51:01.726Z,11.82
2022-11-17T05:53:01.720Z,11.77
2022-11-17T05:56:45.490Z,11.74
2022-11-17T05:58:45.354Z,11.59
2022-11-17T06:00:45.526Z,11.56
2022-11-17T06:02:45.371Z,11.45
2022-11-17T06:04:45.358Z,11.31
2022-11-17T06:06:45.327Z,11.54
2022-11-17T06:08:45.385Z,11.49
2022-11-17T06:11:21.301Z,11.67
2022-11-17T06:13:21.449Z,11.5
2022-11-17T06:15:21.334Z,11.48
2022-11-17T06:17:22.665Z,11.35
2022-11-17T06:19:21.302Z,11.56
2022-11-17T06:21:21.479Z,11.49
2022-11-17T06:23:21.284Z,11.52
2022-11-17T06:26:16.368Z,11.7
2022-11-17T06:28:16.334Z,11.72
2022-11-17T06:30:16.526Z,11.63
2022-11-17T06:32:16.320Z,11.65
2022-11-17T06:34:16.353Z,11.54
2022-11-17T06:36:16.435Z,11.79
2022-11-17T06:38:16.729Z,11.72
2022-11-17T06:40:16.372Z,11.81
2022-11-17T06:41:52.559Z,11.84
2022-11-17T06:43:52.548Z,11.97
2022-11-17T06:45:52.772Z,12.02
2022-11-17T06:47:52.567Z,11.85
2022-11-17T06:49:52.557Z,11.89
2022-11-17T06:51:52.535Z,11.62
2022-11-17T06:53:52.643Z,11.12
2022-11-17T06:57:07.790Z,11.18
2022-11-17T06:59:07.891Z,11.33
2022-11-17T07:01:08.001Z,11.42
2022-11-17T07:03:07.882Z,11.4
2022-11-17T07:05:07.767Z,11.55
2022-11-17T07:07:07.844Z,11.67
2022-11-17T07:09:07.812Z,11.78
2022-11-17T07:12:33.447Z,11.7
2022-11-17T07:14:33.433Z,11.76
2022-11-17T07:16:33.511Z,11.83
2022-11-17T07:18:33.702Z,11.88
2022-11-17T07:20:33.438Z,11.99
2022-11-17T07:22:33.367Z,12.05
2022-11-17T07:24:33.376Z,12.09
2022-11-17T07:27:31.744Z,12.24
2022-11-17T07:29:31.761Z,12.26
2022-11-17T07:31:31.667Z,12.2
2022-11-17T07:33:31.818Z,12.1
2022-11-17T07:35:31.635Z,12.14
2022-11-17T07:37:31.652Z,12.08
2022-11-17T07:39:31.620Z,12
2022-11-17T07:42:11.315Z,12.11
2022-11-17T07:44:11.285Z,12.22
2022-11-17T07:46:11.320Z,12.29
2022-11-17T07:48:11.283Z,12.32
2022-11-17T07:50:11.418Z,12.43
2022-11-17T07:52:11.330Z,12.46
2022-11-17T07:54:11.265Z,12.37
2022-11-17T07:56:11.288Z,12.45
2022-11-17T07:57:22.243Z,12.53
2022-11-17T07:59:22.174Z,12.49
2022-11-17T08:01:22.426Z,12.49
2022-11-17T08:03:22.360Z,12.38
2022-11-17T08:05:22.497Z,12.31
2022-11-17T08:07:22.458Z,12.45
2022-11-17T08:09:22.174Z,12.47
2022-11-17T08:12:46.416Z,12.59
2022-11-17T08:14:46.469Z,12.54
2022-11-17T08:16:46.420Z,12.66
2022-11-17T08:18:51.950Z,12.59
2022-11-17T08:20:46.529Z,12.62
2022-11-17T08:22:46.408Z,12.2
2022-11-17T08:24:46.424Z,12.67
2022-11-17T08:28:26.576Z,13
2022-11-17T08:30:26.592Z,12.96
2022-11-17T08:32:26.621Z,13
2022-11-17T08:34:26.576Z,13.16
2022-11-17T08:36:26.707Z,13.18
2022-11-17T08:38:26.630Z,13.43
2022-11-17T08:40:26.578Z,13.61
2022-11-17T08:42:46.544Z,13.62
2022-11-17T08:44:46.528Z,13.83
2022-11-17T08:46:46.524Z,13.56
2022-11-17T08:48:46.574Z,13.51
2022-11-17T08:50:46.533Z,13.47
2022-11-17T08:52:46.599Z,13.43
2022-11-17T08:54:46.561Z,13.66
2022-11-17T08:56:46.782Z,13.56
2022-11-17T08:58:34.353Z,13.38
2022-11-17T09:00:34.048Z,12.99
2022-11-17T09:02:34.050Z,12.51
2022-11-17T09:04:34.047Z,12.66
2022-11-17T09:06:34.037Z,12.81
2022-11-17T09:08:49.583Z,12.52
2022-11-17T09:10:34.051Z,12.36
2022-11-17T09:13:52.339Z,12.91
2022-11-17T09:15:52.381Z,13.24
2022-11-17T09:17:52.291Z,13.37
2022-11-17T09:19:52.316Z,13.57
2022-11-17T09:21:52.286Z,13.75
2022-11-17T09:23:52.420Z,13.96
2022-11-17T09:25:52.293Z,14.19
2022-11-17T09:29:14.193Z,14.34
2022-11-17T09:31:14.236Z,14.67
2022-11-17T09:33:14.165Z,14.75
2022-11-17T09:35:14.133Z,14.86
2022-11-17T09:37:14.114Z,14.88
2022-11-17T09:39:14.111Z,14.87
2022-11-17T09:41:14.261Z,14.68
2022-11-17T09:44:19.040Z,14.86
2022-11-17T09:46:19.067Z,14.85
2022-11-17T09:48:40.032Z,14.54
2022-11-17T09:50:19.300Z,14.43
2022-11-17T09:52:19.036Z,14.49
2022-11-17T09:54:19.039Z,14.21
2022-11-17T09:56:19.014Z,13.99
2022-11-17T09:59:15.035Z,13.93
2022-11-17T10:01:15.051Z,13.72
2022-11-17T10:03:15.044Z,13.76
2022-11-17T10:05:15.011Z,13.86
2022-11-17T10:07:15.051Z,13.83
2022-11-17T10:09:15.035Z,13.97
2022-11-17T10:11:15.062Z,13.99
2022-11-17T10:13:47.688Z,14.01
2022-11-17T10:15:47.678Z,13.82
2022-11-17T10:17:47.720Z,13.7
2022-11-17T10:19:47.695Z,13.78
2022-11-17T10:21:47.658Z,13.71
2022-11-17T10:23:47.907Z,13.56
2022-11-17T10:25:47.704Z,13.62
2022-11-17T10:27:47.781Z,13.58
2022-11-17T10:29:19.560Z,13.63
2022-11-17T10:31:19.492Z,13.72
2022-11-17T10:33:19.520Z,13.65
2022-11-17T10:35:19.537Z,13.57
2022-11-17T10:37:19.503Z,13.56
2022-11-17T10:39:19.494Z,13.64
2022-11-17T10:41:19.567Z,13.79
2022-11-17T10:44:04.791Z,13.76
2022-11-17T10:46:04.687Z,13.84
2022-11-17T10:48:04.695Z,13.78
2022-11-17T10:50:04.638Z,13.84
2022-11-17T10:52:04.700Z,13.62
2022-11-17T10:54:04.690Z,13.7
2022-11-17T10:56:04.669Z,13.75
2022-11-17T10:58:04.634Z,13.81
2022-11-17T10:59:15.077Z,13.89
2022-11-17T11:01:15.007Z,13.75
2022-11-17T11:03:14.900Z,13.45
2022-11-17T11:05:14.895Z,13.32
2022-11-17T11:07:15.002Z,13.68
2022-11-17T11:09:14.861Z,13.75
2022-11-17T11:11:14.951Z,13.78
2022-11-17T11:13:14.968Z,13.9
2022-11-17T11:14:30.982Z,13.6
2022-11-17T11:16:30.894Z,13.59
2022-11-17T11:18:30.882Z,13.6
2022-11-17T11:20:30.842Z,13.78
2022-11-17T11:22:31.118Z,13.99
2022-11-17T11:24:30.885Z,13.73
2022-11-17T11:26:30.897Z,13.48
2022-11-17T11:29:35.651Z,14.01
2022-11-17T11:31:35.726Z,14.28
2022-11-17T11:33:35.673Z,14.36
2022-11-17T11:35:35.648Z,14.5
2022-11-17T11:37:35.642Z,14.22
2022-11-17T11:39:35.624Z,13.95
2022-11-17T11:41:35.634Z,13.66
2022-11-17T11:43:35.628Z,14
2022-11-17T11:45:34.411Z,13.89
2022-11-17T11:47:34.410Z,13.98
2022-11-17T11:49:34.393Z,13.94
2022-11-17T11:51:34.361Z,14.07
2022-11-17T11:53:34.387Z,14.19
2022-11-17T11:55:34.421Z,14.18
2022-11-17T11:57:34.362Z,14.25
2022-11-17T12:00:45.478Z,14.43
2022-11-17T12:02:45.527Z,14.77
2022-11-17T12:04:45.419Z,14.97
2022-11-17T12:06:45.434Z,15.3
2022-11-17T12:08:45.396Z,15.52
2022-11-17T12:10:45.450Z,15.24
2022-11-17T12:12:45.401Z,15.51
2022-11-17T12:15:26.099Z,14.73
2022-11-17T12:17:26.148Z,14.69
2022-11-17T12:19:26.077Z,14.74
2022-11-17T12:21:26.110Z,14.73
2022-11-17T12:23:26.100Z,14.58
2022-11-17T12:25:26.155Z,14.7
2022-11-17T12:27:26.236Z,14.66
2022-11-17T12:30:37.143Z,14.74
2022-11-17T12:32:37.185Z,14.8
2022-11-17T12:34:37.251Z,14.9
2022-11-17T12:36:37.106Z,15
2022-11-17T12:38:37.165Z,14.88
2022-11-17T12:40:37.108Z,14.66
2022-11-17T12:42:37.143Z,14.67
2022-11-17T12:45:51.647Z,14.71
2022-11-17T12:48:11.478Z,14.84
2022-11-17T12:49:51.639Z,14.8
2022-11-17T12:51:51.624Z,14.76
2022-11-17T12:53:51.636Z,14.85
2022-11-17T12:55:51.627Z,14.9
2022-11-17T12:57:51.620Z,14.81
2022-11-17T13:00:36.245Z,14.78
2022-11-17T13:02:36.227Z,14.67
2022-11-17T13:04:36.235Z,14.39
2022-11-17T13:06:36.917Z,14.35
2022-11-17T13:08:36.215Z,14.05
2022-11-17T13:10:36.552Z,14.24
2022-11-17T13:12:36.207Z,14.03
2022-11-17T13:14:36.239Z,14.07
2022-11-17T13:15:55.233Z,14.02
2022-11-17T13:17:55.279Z,14.06
2022-11-17T13:19:55.285Z,14.08
2022-11-17T13:21:55.253Z,14.07
2022-11-17T13:23:55.277Z,14.18
2022-11-17T13:25:55.243Z,14.05
2022-11-17T13:27:59.895Z,13.99
2022-11-17T13:31:04.490Z,14.04
2022-11-17T13:33:04.444Z,13.96
2022-11-17T13:35:04.484Z,14.04
2022-11-17T13:37:04.461Z,14.09
2022-11-17T13:39:04.455Z,14.11
2022-11-17T13:41:04.507Z,14.07
2022-11-17T13:43:04.436Z,13.98
2022-11-17T13:46:13.679Z,14
2022-11-17T13:48:13.641Z,14.07
2022-11-17T13:50:13.719Z,14.04
2022-11-17T13:52:13.707Z,14
2022-11-17T13:54:13.913Z,14.14
2022-11-17T13:56:13.729Z,14.05
2022-11-17T13:58:18.635Z,14.23
2022-11-17T14:01:38.568Z,14.02
2022-11-17T14:03:38.463Z,14.12
2022-11-17T14:05:38.545Z,14.15
2022-11-17T14:07:38.590Z,14.14
2022-11-17T14:09:38.482Z,14.03
2022-11-17T14:11:38.506Z,13.99
2022-11-17T14:13:38.483Z,14.05
2022-11-17T14:17:01.734Z,13.78
2022-11-17T14:19:01.781Z,13.82
2022-11-17T14:21:01.761Z,13.8
2022-11-17T14:23:01.738Z,13.75
2022-11-17T14:25:01.719Z,13.72
2022-11-17T14:27:01.816Z,13.89
2022-11-17T14:29:01.710Z,13.82
2022-11-17T14:31:50.410Z,13.81
2022-11-17T14:33:50.401Z,13.83
2022-11-17T14:35:50.366Z,13.78
2022-11-17T14:37:50.355Z,13.88
2022-11-17T14:39:50.325Z,13.79
2022-11-17T14:41:50.347Z,13.88
2022-11-17T14:43:50.374Z,13.74
2022-11-17T14:46:49.775Z,13.58
2022-11-17T14:48:49.794Z,13.72
2022-11-17T14:50:49.748Z,13.72
2022-11-17T14:52:49.789Z,13.75
2022-11-17T14:54:49.872Z,13.65
2022-11-17T14:56:49.747Z,13.65
2022-11-17T14:58:49.745Z,13.61
2022-11-17T15:00:49.965Z,13.58
2022-11-17T15:02:43.599Z,13.52
2022-11-17T15:04:50.325Z,13.56
2022-11-17T15:06:43.407Z,13.48
2022-11-17T15:08:43.413Z,13.53
2022-11-17T15:10:43.441Z,13.47
2022-11-17T15:12:43.442Z,13.49
2022-11-17T15:14:43.387Z,13.52
2022-11-17T15:17:26.259Z,13.58
2022-11-17T15:19:26.243Z,13.65
2022-11-17T15:21:26.247Z,13.59
2022-11-17T15:23:26.230Z,13.64
2022-11-17T15:25:26.300Z,13.69
2022-11-17T15:27:26.300Z,13.69
2022-11-17T15:29:26.215Z,13.6
2022-11-17T15:32:30.137Z,13.58
2022-11-17T15:34:30.097Z,13.68
2022-11-17T15:36:30.125Z,13.71
2022-11-17T15:38:30.065Z,13.69
2022-11-17T15:40:30.047Z,13.59
2022-11-17T15:42:30.136Z,13.72
2022-11-17T15:44:30.156Z,13.75
2022-11-17T15:48:04.480Z,13.76
2022-11-17T15:50:04.467Z,13.84
2022-11-17T15:52:04.491Z,13.74
2022-11-17T15:54:04.478Z,13.78
2022-11-17T15:56:04.450Z,13.78
2022-11-17T15:58:04.477Z,13.77
2022-11-17T16:00:04.468Z,13.74
2022-11-17T16:02:58.544Z,13.65
2022-11-17T16:04:54.681Z,13.54
2022-11-17T16:06:54.713Z,13.54
2022-11-17T16:08:54.885Z,13.61
2022-11-17T16:10:54.674Z,13.71
2022-11-17T16:12:54.779Z,13.61
2022-11-17T16:14:54.779Z,13.6
2022-11-17T16:18:29.060Z,13.57
2022-11-17T16:20:29.149Z,13.53
2022-11-17T16:22:29.082Z,13.52
2022-11-17T16:24:29.048Z,13.5
2022-11-17T16:26:29.100Z,13.6
2022-11-17T16:28:29.081Z,13.59
2022-11-17T16:30:32.824Z,13.28
2022-11-17T16:33:43.203Z,13.07
2022-11-17T16:35:43.173Z,13.08
2022-11-17T16:37:43.176Z,13.46
2022-11-17T16:39:43.207Z,13.64
2022-11-17T16:41:43.165Z,13.77
2022-11-17T16:43:44.649Z,13.8
2022-11-17T16:45:43.466Z,13.82
2022-11-17T16:48:58.054Z,13.68
2022-11-17T16:50:58.016Z,13.8
2022-11-17T16:52:58.021Z,13.86
2022-11-17T16:55:01.848Z,13.83
2022-11-17T16:56:58.005Z,13.79
2022-11-17T16:58:58.057Z,13.82
2022-11-17T17:00:58.031Z,13.81
2022-11-17T17:03:34.346Z,13.69
2022-11-17T17:05:33.929Z,13.78
2022-11-17T17:07:34.036Z,13.78
2022-11-17T17:09:33.956Z,13.78
2022-11-17T17:11:34.013Z,13.74
2022-11-17T17:13:33.929Z,13.74
2022-11-17T17:15:33.919Z,13.7
2022-11-17T17:18:24.728Z,13.74
2022-11-17T17:20:24.723Z,13.82
2022-11-17T17:22:24.759Z,13.75
2022-11-17T17:24:24.986Z,13.66
2022-11-17T17:26:24.674Z,13.6
2022-11-17T17:28:24.668Z,13.61
2022-11-17T17:30:24.756Z,13.6
2022-11-17T17:32:24.658Z,13.52
2022-11-17T17:34:01.647Z,13.52
2022-11-17T17:36:01.514Z,13.38
2022-11-17T17:38:01.513Z,13.41
2022-11-17T17:40:01.571Z,13.36
2022-11-17T17:42:01.570Z,13.36
2022-11-17T17:44:01.543Z,13.35
2022-11-17T17:46:01.510Z,13.32
2022-11-17T17:49:28.683Z,13.33
2022-11-17T17:51:28.576Z,13.23
2022-11-17T17:53:28.556Z,13.21
2022-11-17T17:55:28.605Z,13.2
2022-11-17T17:57:32.688Z,13.18
2022-11-17T17:59:28.592Z,13.24
2022-11-17T18:01:28.600Z,13.28
2022-11-17T18:04:50.467Z,13.36
2022-11-17T18:06:50.409Z,13.38
2022-11-17T18:08:50.488Z,13.37
2022-11-17T18:10:50.438Z,13.39
2022-11-17T18:12:50.422Z,13.36
2022-11-17T18:14:50.481Z,13.36
2022-11-17T18:16:50.385Z,13.38
2022-11-17T18:19:52.533Z,13.35
2022-11-17T18:21:52.471Z,13.31
2022-11-17T18:23:52.512Z,13.29
2022-11-17T18:25:52.511Z,13.28
2022-11-17T18:27:52.454Z,13.23
2022-11-17T18:29:52.585Z,13.21
2022-11-17T18:31:52.688Z,12.95
2022-11-17T18:34:42.460Z,12.85
2022-11-17T18:36:42.533Z,12.77
2022-11-17T18:38:42.541Z,12.83
2022-11-17T18:40:42.464Z,12.66
2022-11-17T18:42:42.589Z,12.76
2022-11-17T18:44:42.485Z,12.62
2022-11-17T18:46:42.462Z,12.62
2022-11-17T18:49:20.650Z,12.77
2022-11-17T18:51:21.207Z,12.9
2022-11-17T18:53:20.434Z,12.81
2022-11-17T18:55:20.439Z,12.7
2022-11-17T18:57:20.412Z,12.74
2022-11-17T18:59:20.445Z,12.78
2022-11-17T19:01:20.503Z,12.8
2022-11-17T19:03:20.404Z,12.73
2022-11-17T19:04:57.235Z,12.7
2022-11-17T19:06:57.243Z,12.71
2022-11-17T19:08:57.411Z,12.67
2022-11-17T19:10:59.785Z,12.57
2022-11-17T19:12:57.238Z,12.46
2022-11-17T19:14:57.374Z,12.49
2022-11-17T19:16:57.173Z,12.44
2022-11-17T19:20:31.630Z,12.48
2022-11-17T19:22:31.603Z,12.41
2022-11-17T19:24:31.701Z,12.3
2022-11-17T19:26:31.614Z,12.47
2022-11-17T19:28:31.597Z,12.42
2022-11-17T19:30:31.683Z,12.55
2022-11-17T19:32:31.754Z,12.55
2022-11-17T19:35:06.523Z,12.48
2022-11-17T19:36:59.436Z,12.33
2022-11-17T19:38:59.481Z,11.88
2022-11-17T19:40:59.485Z,11.97
2022-11-17T19:42:59.583Z,12.06
2022-11-17T19:44:59.479Z,12.24
2022-11-17T19:46:59.431Z,12.41
2022-11-17T19:50:42.268Z,12.51
2022-11-17T19:52:42.279Z,12.47
2022-11-17T19:54:42.345Z,12.48
2022-11-17T19:56:42.354Z,12.51
2022-11-17T19:58:42.263Z,12.43
2022-11-17T20:00:42.280Z,12.44
2022-11-17T20:02:42.269Z,12.41
2022-11-17T20:05:30.724Z,12.34
2022-11-17T20:07:30.789Z,12.3
2022-11-17T20:09:30.701Z,12.25
2022-11-17T20:11:30.702Z,12.25
2022-11-17T20:13:30.735Z,12.24
2022-11-17T20:15:34.907Z,12.2
2022-11-17T20:17:30.853Z,12.21
2022-11-17T20:20:28.689Z,12.04
2022-11-17T20:22:28.704Z,12.02
2022-11-17T20:24:28.674Z,11.89
2022-11-17T20:26:28.748Z,12.01
2022-11-17T20:28:28.679Z,12.08
2022-11-17T20:30:28.682Z,12.1
2022-11-17T20:32:28.653Z,12.07
2022-11-17T20:34:28.709Z,12
2022-11-17T20:36:25.434Z,11.94
2022-11-17T20:38:25.376Z,12.02
2022-11-17T20:40:25.377Z,12
2022-11-17T20:42:25.471Z,12.04
2022-11-17T20:44:25.394Z,11.98
2022-11-17T20:46:25.418Z,11.99
2022-11-17T20:48:25.370Z,11.93
2022-11-17T20:51:22.964Z,11.91
2022-11-17T20:53:22.871Z,11.89
2022-11-17T20:55:22.916Z,11.86
2022-11-17T20:57:22.881Z,11.81
2022-11-17T20:59:23.179Z,11.73
2022-11-17T21:01:23.029Z,11.59
2022-11-17T21:03:23.032Z,11.61
2022-11-17T21:06:23.620Z,11.59
2022-11-17T21:08:23.662Z,11.54
2022-11-17T21:10:23.612Z,11.46
2022-11-17T21:12:23.628Z,11.57
2022-11-17T21:14:23.684Z,11.44
2022-11-17T21:16:23.599Z,11.48
2022-11-17T21:18:23.618Z,11.39
2022-11-17T21:21:48.231Z,11.25
2022-11-17T21:23:48.223Z,11.31
2022-11-17T21:25:48.218Z,11.32
2022-11-17T21:27:48.228Z,11.19
2022-11-17T21:29:48.203Z,11.23
2022-11-17T21:31:48.185Z,11.18
2022-11-17T21:33:48.201Z,11.17
2022-11-17T21:36:49.167Z,11.14
2022-11-17T21:38:49.192Z,11.1
2022-11-17T21:40:49.213Z,11.04
2022-11-17T21:42:49.142Z,11
2022-11-17T21:44:49.214Z,10.83
2022-11-17T21:46:49.177Z,10.83
2022-11-17T21:48:49.136Z,10.84
2022-11-17T21:51:35.797Z,10.84
2022-11-17T21:53:35.785Z,10.78
2022-11-17T21:55:35.877Z,10.89
2022-11-17T21:57:35.842Z,10.8
2022-11-17T21:59:35.790Z,10.86
2022-11-17T22:01:35.893Z,10.69
2022-11-17T22:03:35.789Z,10.72
2022-11-17T22:07:23.582Z,10.66
2022-11-17T22:09:23.425Z,10.69
2022-11-17T22:11:23.460Z,10.61
2022-11-17T22:13:23.467Z,10.63
2022-11-17T22:15:23.439Z,10.6
2022-11-17T22:17:23.461Z,10.63
2022-11-17T22:19:23.424Z,10.55
2022-11-17T22:22:15.367Z,10.42
2022-11-17T22:24:15.322Z,10.15
2022-11-17T22:26:15.335Z,10.31
2022-11-17T22:28:15.362Z,10.42
2022-11-17T22:30:15.317Z,10.43
2022-11-17T22:32:15.305Z,10.48
2022-11-17T22:34:15.314Z,10.43
2022-11-17T22:37:20.462Z,10.46
2022-11-17T22:39:20.512Z,10.49
2022-11-17T22:41:20.202Z,10.53
2022-11-17T22:43:20.262Z,10.55
2022-11-17T22:45:20.353Z,10.53
2022-11-17T22:47:20.277Z,10.39
2022-11-17T22:49:20.193Z,10.31
2022-11-17T22:52:05.787Z,10.53
2022-11-17T22:54:05.739Z,10.54
2022-11-17T22:56:05.741Z,10.2
2022-11-17T22:58:05.756Z,9.98
2022-11-17T23:00:05.818Z,9.83
2022-11-17T23:02:05.739Z,9.82
2022-11-17T23:04:05.735Z,9.99
2022-11-17T23:07:56.196Z,10.01
2022-11-17T23:09:56.091Z,10.06
2022-11-17T23:11:56.152Z,10.06
2022-11-17T23:13:56.077Z,10.04
2022-11-17T23:15:56.121Z,10.1
2022-11-17T23:17:56.090Z,10.1
2022-11-17T23:19:56.105Z,9.91
2022-11-17T23:22:43.459Z,9.94
2022-11-17T23:24:43.441Z,10.06
2022-11-17T23:26:43.423Z,10.06
2022-11-17T23:28:43.477Z,10.03
2022-11-17T23:30:43.422Z,9.97
2022-11-17T23:32:43.429Z,9.93
2022-11-17T23:34:43.420Z,9.89
2022-11-17T23:37:44.162Z,9.84
2022-11-17T23:39:44.172Z,9.69
2022-11-17T23:41:44.215Z,9.7
2022-11-17T23:43:44.151Z,9.59
2022-11-17T23:45:44.154Z,9.63
2022-11-17T23:47:44.187Z,9.65
2022-11-17T23:49:44.173Z,9.64
2022-11-17T23:53:34.332Z,9.44
2022-11-17T23:55:34.340Z,9.01
2022-11-17T23:57:34.309Z,9.07
2022-11-17T23:59:34.322Z,9.25
